This is the latest recevied weather packets stored in our database for station/object SP2JGY-2. If no packets are shown the sender has not sent any weather packets the latest 10 day(s).
| Time | Temp. | Humidity | Pressure | Rain* | Wind** | Luminosity | Snow |
|---|---|---|---|---|---|---|---|
| 1777673382 | 10.56° C | 43% | 1025.3 hPa | - | - | - | - |
| 1777672482 | 11.11° C | 42% | 1025.3 hPa | - | - | - | - |
| 1777671582 | 11.67° C | 41% | 1025.3 hPa | - | - | - | - |
| 1777670682 | 11.67° C | 43% | 1025.3 hPa | - | - | - | - |
| 1777669782 | 11.67° C | 42% | 1025.2 hPa | - | - | - | - |
| 1777668881 | 12.78° C | 40% | 1025.3 hPa | - | - | - | - |
| 1777667981 | 13.33° C | 38% | 1025.3 hPa | - | - | - | - |
| 1777667081 | 13.33° C | 38% | 1025.4 hPa | - | - | - | - |
| 1777666181 | 13.89° C | 36% | 1025.3 hPa | - | - | - | - |
| 1777665281 | 14.44° C | 35% | 1025.3 hPa | - | - | - | - |
| 1777664381 | 14.44° C | 34% | 1025.3 hPa | - | - | - | - |
| 1777663481 | 15° C | 33% | 1025.3 hPa | - | - | - | - |
| 1777662580 | 15.56° C | 32% | 1025.2 hPa | - | - | - | - |
| 1777661680 | 16.11° C | 31% | 1025.2 hPa | - | - | - | - |
| 1777660780 | 16.67° C | 32% | 1025.2 hPa | - | - | - | - |
| 1777659880 | 17.78° C | 32% | 1025 hPa | - | - | - | - |
| 1777658980 | 18.33° C | 34% | 1025 hPa | - | - | - | - |
| 1777658080 | 19.44° C | 32% | 1024.8 hPa | - | - | - | - |
| 1777657179 | 20° C | 32% | 1024.7 hPa | - | - | - | - |
| 1777656279 | 21.67° C | 30% | 1024.7 hPa | - | - | - | - |
| 1777655379 | 21.67° C | 30% | 1024.6 hPa | - | - | - | - |
| 1777654479 | 22.78° C | 28% | 1024.5 hPa | - | - | - | - |
| 1777653579 | 22.78° C | 28% | 1024.6 hPa | - | - | - | - |
| 1777652678 | 25° C | 25% | 1024.5 hPa | - | - | - | - |
| 1777651778 | 33.89° C | 14% | 1024.6 hPa | - | - | - | - |
* Rain since midnight (hover to see other rain measurements)
** Current wind speed in m/s (hover to see current wind gust speed)